Waggoner, Illinois
Current Conditions -  °F | °C
As of 4:35 AM on Friday 24 Oct 2014 (Local Time) from K3LF Reporting Station
Broken Clouds Broken Clouds  
Wind Chill: 52°   Ceiling: 6000
Heat Index: 52°   Visibility: 10mi
Dew Point: 47°   Wind: 5mph
Humidity: 82%   Direction: 200°SSW
Pressure: 30.08"   Gusts: NA
Location:  39.38°N, 89.65°W
Report Text: K3LF 240935Z AUTO 20004KT 10SM SCT039 BKN060 11/08 A3008 RMK AO2 T01130084
Loading
Personal Weather Stations






























Interactive Weather Map
Tropical Storm Tracking
New forecast layout! Learn more

10-Day Weather Forecast

Advertisements
Track Severe Weather on mobile